createdAt,value
2019-03-20T00:00:59.313Z,69.95
2019-03-20T00:03:30.613Z,74.42
2019-03-20T00:06:01.872Z,81.37
2019-03-20T00:08:33.261Z,87.08
2019-03-20T00:11:04.609Z,105.20
2019-03-20T00:13:36.006Z,191.00
2019-03-20T00:16:07.362Z,205.50
2019-03-20T00:18:38.740Z,154.78
2019-03-20T00:21:10.102Z,123.22
2019-03-20T00:23:41.501Z,292.40
2019-03-20T00:26:13.356Z,292.60
2019-03-20T00:28:44.654Z,180.50
2019-03-20T00:31:16.095Z,151.55
2019-03-20T00:33:47.359Z,70.57
2019-03-20T00:36:20.058Z,111.88
2019-03-20T00:38:51.464Z,107.10
2019-03-20T00:41:22.748Z,104.55
2019-03-20T00:43:55.014Z,231.25
2019-03-20T00:46:26.413Z,153.78
2019-03-20T00:48:57.939Z,118.60
2019-03-20T00:51:29.205Z,115.32
2019-03-20T00:54:00.640Z,69.80
2019-03-20T00:56:32.095Z,144.75
2019-03-20T00:59:03.435Z,181.10
2019-03-20T01:01:34.768Z,164.18
2019-03-20T01:04:06.009Z,113.60
2019-03-20T01:06:37.279Z,122.28
2019-03-20T01:09:08.574Z,109.72
2019-03-20T01:11:39.820Z,90.53
2019-03-20T01:14:11.158Z,95.45
2019-03-20T01:16:42.564Z,96.12
2019-03-20T01:19:13.976Z,91.02
2019-03-20T01:21:45.401Z,85.03
2019-03-20T01:24:16.815Z,74.85
2019-03-20T01:26:48.100Z,62.80
2019-03-20T01:29:19.502Z,64.53
2019-03-20T01:31:50.915Z,59.88
2019-03-20T01:34:22.186Z,59.80
2019-03-20T01:36:53.503Z,67.80
2019-03-20T01:39:24.847Z,56.05
2019-03-20T01:41:56.226Z,61.37
2019-03-20T01:44:27.694Z,60.67
2019-03-20T01:47:00.268Z,59.03
2019-03-20T01:49:31.645Z,71.47
2019-03-20T01:52:03.020Z,67.58
2019-03-20T01:54:34.487Z,83.17
2019-03-20T01:57:06.413Z,68.50
2019-03-20T01:59:37.794Z,66.33
2019-03-20T02:02:09.007Z,73.00
2019-03-20T02:04:40.531Z,78.50
2019-03-20T02:07:11.909Z,80.32
2019-03-20T02:09:43.283Z,75.62
2019-03-20T02:12:14.606Z,79.40
2019-03-20T02:14:46.025Z,76.17
2019-03-20T02:17:17.468Z,78.15
2019-03-20T02:19:48.886Z,79.65
2019-03-20T02:22:20.731Z,96.90
2019-03-20T02:24:51.932Z,91.08
2019-03-20T02:27:23.294Z,79.58
2019-03-20T02:29:54.551Z,117.65
2019-03-20T02:32:25.910Z,110.25
2019-03-20T02:34:57.355Z,134.95
2019-03-20T02:37:28.715Z,124.12
2019-03-20T02:39:59.983Z,114.90
2019-03-20T02:42:31.268Z,134.35
2019-03-20T02:45:02.576Z,123.28
2019-03-20T02:47:34.975Z,115.00
2019-03-20T02:50:08.667Z,127.02
2019-03-20T02:52:40.132Z,133.12
2019-03-20T02:55:12.286Z,121.60
2019-03-20T02:57:43.596Z,139.07
2019-03-20T03:00:19.840Z,115.05
2019-03-20T03:02:51.110Z,128.75
2019-03-20T03:05:22.387Z,124.53
2019-03-20T03:07:53.814Z,120.02
2019-03-20T03:10:25.219Z,86.87
2019-03-20T03:12:56.543Z,121.07
2019-03-20T03:15:27.914Z,108.57
2019-03-20T03:17:59.324Z,106.72
2019-03-20T03:20:30.665Z,103.40
2019-03-20T03:23:01.960Z,119.72
2019-03-20T03:25:33.249Z,102.53
2019-03-20T03:28:04.648Z,96.25
2019-03-20T03:30:35.976Z,125.30
2019-03-20T03:33:07.355Z,110.65
2019-03-20T03:35:38.839Z,108.70
2019-03-20T03:38:10.177Z,105.15
2019-03-20T03:40:41.500Z,100.58
2019-03-20T03:43:12.857Z,77.45
2019-03-20T03:45:44.298Z,83.30
2019-03-20T03:48:15.637Z,92.22
2019-03-20T03:50:48.417Z,105.20
2019-03-20T03:53:20.166Z,90.30
2019-03-20T03:55:51.538Z,87.97
2019-03-20T03:58:22.866Z,77.72
2019-03-20T04:00:54.217Z,61.53
2019-03-20T04:03:25.638Z,94.85
2019-03-20T04:05:57.017Z,108.65
2019-03-20T04:08:28.298Z,122.05
2019-03-20T04:10:59.677Z,130.20
2019-03-20T04:13:30.900Z,105.37
2019-03-20T04:16:02.309Z,92.90
2019-03-20T04:18:33.858Z,121.33
2019-03-20T04:21:05.153Z,104.72
2019-03-20T04:23:36.509Z,86.92
2019-03-20T04:26:07.840Z,57.40
2019-03-20T04:28:39.216Z,106.78
2019-03-20T04:31:10.643Z,96.42
2019-03-20T04:33:41.923Z,91.50
2019-03-20T04:36:13.361Z,79.75
2019-03-20T04:38:44.869Z,109.00
2019-03-20T04:41:16.380Z,112.97
2019-03-20T04:43:47.732Z,127.02
2019-03-20T04:46:19.160Z,145.68
2019-03-20T04:48:50.426Z,146.28
2019-03-20T04:51:21.788Z,134.43
2019-03-20T04:53:53.228Z,247.40
2019-03-20T04:56:24.552Z,284.85
2019-03-20T04:58:55.900Z,135.40
2019-03-20T05:01:27.322Z,172.13
2019-03-20T05:03:58.508Z,237.17
2019-03-20T05:06:29.831Z,147.80
2019-03-20T05:09:01.285Z,123.35
2019-03-20T05:11:32.904Z,122.25
2019-03-20T05:14:04.344Z,95.97
2019-03-20T05:16:35.693Z,172.75
2019-03-20T05:19:06.973Z,91.80
2019-03-20T05:21:38.281Z,111.32
2019-03-20T05:24:09.622Z,113.10
2019-03-20T05:26:41.028Z,85.12
2019-03-20T05:29:12.368Z,156.30
2019-03-20T05:31:44.689Z,204.07
2019-03-20T05:34:16.027Z,143.68
2019-03-20T05:36:47.361Z,119.62
2019-03-20T05:39:18.672Z,98.52
2019-03-20T05:41:50.083Z,94.72
2019-03-20T05:44:21.455Z,111.30
2019-03-20T05:46:52.786Z,91.75
2019-03-20T05:49:24.209Z,132.72
2019-03-20T05:51:55.456Z,133.47
2019-03-20T05:54:26.881Z,112.85
2019-03-20T05:56:58.352Z,124.33
2019-03-20T05:59:29.732Z,110.95
2019-03-20T06:02:01.043Z,144.93
2019-03-20T06:04:32.507Z,101.22
2019-03-20T06:07:03.944Z,151.40
2019-03-20T06:09:35.315Z,186.92
2019-03-20T06:12:06.693Z,178.57
2019-03-20T06:14:38.102Z,190.85
2019-03-20T06:17:09.364Z,212.50
2019-03-20T06:19:40.828Z,126.58
2019-03-20T06:22:12.222Z,125.20
2019-03-20T06:24:43.671Z,103.95
2019-03-20T06:27:15.035Z,105.70
2019-03-20T06:29:46.465Z,105.85
2019-03-20T06:32:17.866Z,101.58
2019-03-20T06:34:49.261Z,108.05
2019-03-20T06:37:20.709Z,107.83
2019-03-20T06:39:53.386Z,108.72
2019-03-20T06:42:25.200Z,89.03
2019-03-20T06:44:56.557Z,89.72
2019-03-20T06:47:27.941Z,61.08
2019-03-20T06:50:00.273Z,76.47
2019-03-20T06:52:32.392Z,85.77
2019-03-20T06:55:04.138Z,77.92
2019-03-20T06:57:35.493Z,79.10
2019-03-20T07:00:39.981Z,86.37
2019-03-20T07:03:29.232Z,79.07
2019-03-20T07:06:22.014Z,72.42
2019-03-20T07:09:17.965Z,68.95
2019-03-20T07:11:49.319Z,87.65
2019-03-20T07:14:20.730Z,86.15
2019-03-20T07:16:52.072Z,55.05
2019-03-20T07:19:23.454Z,102.32
2019-03-20T07:21:54.985Z,75.30
2019-03-20T07:24:26.376Z,87.88
2019-03-20T07:26:57.744Z,144.28
2019-03-20T07:29:29.238Z,124.80
2019-03-20T07:32:00.668Z,98.67
2019-03-20T07:34:32.054Z,87.30
2019-03-20T07:37:03.384Z,98.10
2019-03-20T07:39:34.769Z,106.22
2019-03-20T07:42:06.126Z,82.17
2019-03-20T07:44:37.584Z,70.15
2019-03-20T07:47:08.940Z,88.67
2019-03-20T07:49:40.295Z,75.78
2019-03-20T07:52:11.665Z,65.35
2019-03-20T07:54:43.102Z,54.75
2019-03-20T07:57:14.493Z,72.08
2019-03-20T07:59:45.815Z,71.57
2019-03-20T08:02:17.163Z,94.83
2019-03-20T08:04:48.519Z,105.78
2019-03-20T08:07:19.786Z,95.07
2019-03-20T08:09:51.030Z,93.95
2019-03-20T08:12:22.460Z,95.85
2019-03-20T08:14:53.971Z,93.45
2019-03-20T08:17:25.301Z,94.62
2019-03-20T08:19:56.561Z,116.85
2019-03-20T08:22:27.959Z,78.40
2019-03-20T08:24:59.404Z,84.58
2019-03-20T08:27:30.809Z,80.15
2019-03-20T08:30:02.140Z,88.00
2019-03-20T08:32:33.476Z,78.42
2019-03-20T08:35:07.455Z,85.85
2019-03-20T08:37:38.990Z,87.42
2019-03-20T08:40:15.508Z,76.10
2019-03-20T08:42:46.849Z,80.85
2019-03-20T08:45:19.463Z,86.85
2019-03-20T08:47:50.860Z,85.72
2019-03-20T08:50:25.990Z,97.08
2019-03-20T08:52:57.382Z,76.95
2019-03-20T08:55:28.753Z,83.10
2019-03-20T08:58:00.190Z,87.80
2019-03-20T09:00:31.490Z,81.70
2019-03-20T09:03:02.871Z,67.27
2019-03-20T09:05:34.355Z,48.33
2019-03-20T09:08:05.747Z,69.20
2019-03-20T09:10:37.091Z,62.70
2019-03-20T09:13:08.493Z,68.33
2019-03-20T09:15:39.865Z,57.85
2019-03-20T09:18:11.257Z,61.53
2019-03-20T09:20:42.633Z,69.87
2019-03-20T09:23:14.129Z,59.95
2019-03-20T09:25:45.412Z,60.85
2019-03-20T09:28:16.754Z,71.42
2019-03-20T09:30:48.071Z,62.55
2019-03-20T09:33:19.529Z,53.33
2019-03-20T09:35:50.954Z,67.37
2019-03-20T09:38:22.292Z,57.13
2019-03-20T09:40:53.653Z,58.85
2019-03-20T09:43:25.084Z,56.73
2019-03-20T09:45:57.128Z,55.55
2019-03-20T09:48:28.822Z,60.50
2019-03-20T09:51:00.284Z,59.75
2019-03-20T09:53:31.625Z,53.95
2019-03-20T09:56:03.203Z,49.30
2019-03-20T09:58:34.633Z,54.58
2019-03-20T10:01:06.029Z,49.73
2019-03-20T10:03:37.296Z,50.08
2019-03-20T10:06:08.627Z,50.50
2019-03-20T10:08:39.925Z,51.40
2019-03-20T10:11:11.209Z,54.48
2019-03-20T10:13:42.476Z,57.05
2019-03-20T10:16:13.866Z,63.60
2019-03-20T10:18:45.227Z,67.78
2019-03-20T10:21:16.512Z,63.90
2019-03-20T10:23:47.779Z,64.15
2019-03-20T10:26:19.106Z,56.48
2019-03-20T10:28:50.486Z,61.05
2019-03-20T10:31:21.872Z,58.02
2019-03-20T10:33:53.272Z,71.12
2019-03-20T10:36:24.702Z,66.15
2019-03-20T10:39:05.932Z,60.17
2019-03-20T10:41:29.205Z,49.83
2019-03-20T10:44:00.649Z,58.02
2019-03-20T10:46:31.970Z,53.75
2019-03-20T10:49:03.332Z,52.13
2019-03-20T10:51:34.613Z,53.85
2019-03-20T10:54:07.279Z,50.50
2019-03-20T10:56:40.619Z,56.28
2019-03-20T10:59:11.906Z,52.90
2019-03-20T11:01:43.372Z,47.25
2019-03-20T11:04:14.709Z,50.23
2019-03-20T11:06:46.006Z,55.28
2019-03-20T11:09:18.701Z,53.83
2019-03-20T11:11:51.373Z,59.42
2019-03-20T11:14:22.893Z,62.75
2019-03-20T11:16:54.393Z,53.42
2019-03-20T11:19:25.721Z,65.12
2019-03-20T11:21:57.092Z,66.92
2019-03-20T11:24:28.340Z,73.60
2019-03-20T11:26:59.799Z,74.62
2019-03-20T11:29:31.231Z,66.02
2019-03-20T11:32:02.490Z,70.87
2019-03-20T11:34:33.738Z,53.78
2019-03-20T11:37:05.136Z,54.55
2019-03-20T11:39:36.535Z,53.73
2019-03-20T11:42:07.867Z,51.55
2019-03-20T11:44:39.271Z,58.28
2019-03-20T11:47:10.638Z,54.77
2019-03-20T11:49:43.101Z,45.60
2019-03-20T11:52:14.378Z,43.28
2019-03-20T11:54:45.811Z,52.88
2019-03-20T11:57:17.156Z,49.73
2019-03-20T11:59:48.470Z,45.55
2019-03-20T12:02:27.983Z,42.67
2019-03-20T12:04:54.076Z,52.40
2019-03-20T12:07:25.711Z,43.75
2019-03-20T12:09:58.845Z,42.33
2019-03-20T12:12:30.333Z,44.58
2019-03-20T12:15:01.685Z,43.10
2019-03-20T12:17:32.961Z,41.53
2019-03-20T12:20:07.805Z,40.70
2019-03-20T12:22:39.201Z,42.78
2019-03-20T12:25:13.573Z,41.75
2019-03-20T12:27:44.996Z,37.83
2019-03-20T12:30:20.576Z,38.28
2019-03-20T12:32:51.972Z,46.42
2019-03-20T12:35:24.688Z,38.50
2019-03-20T12:37:56.025Z,38.38
2019-03-20T12:40:31.632Z,39.42
2019-03-20T12:43:03.027Z,43.13
2019-03-20T12:45:38.416Z,42.90
2019-03-20T12:48:11.423Z,42.48
2019-03-20T12:50:44.072Z,47.48
2019-03-20T12:53:30.709Z,47.33
2019-03-20T12:56:02.077Z,52.95
2019-03-20T12:58:33.333Z,42.25
2019-03-20T13:01:04.779Z,43.92
2019-03-20T13:03:36.205Z,57.73
2019-03-20T13:06:07.562Z,57.95
2019-03-20T13:08:38.879Z,54.25
2019-03-20T13:11:10.340Z,54.70
2019-03-20T13:13:41.708Z,53.58
2019-03-20T13:16:13.043Z,64.55
2019-03-20T13:18:44.442Z,51.02
2019-03-20T13:21:15.762Z,53.92
2019-03-20T13:23:47.146Z,55.28
2019-03-20T13:26:18.525Z,60.38
2019-03-20T13:28:49.856Z,60.98
2019-03-20T13:31:23.355Z,54.20
2019-03-20T13:33:54.616Z,55.73
2019-03-20T13:36:25.983Z,71.62
2019-03-20T13:38:57.405Z,66.50
2019-03-20T13:41:28.775Z,61.13
2019-03-20T13:44:00.023Z,68.00
2019-03-20T13:46:31.428Z,47.08
2019-03-20T13:49:02.772Z,54.13
2019-03-20T13:51:34.123Z,61.77
2019-03-20T13:54:05.674Z,60.08
2019-03-20T13:56:36.980Z,56.15
2019-03-20T13:59:08.299Z,63.33
2019-03-20T14:01:39.687Z,52.38
2019-03-20T14:04:10.952Z,67.35
2019-03-20T14:06:42.280Z,49.58
2019-03-20T14:09:13.712Z,53.40
2019-03-20T14:11:45.128Z,43.95
2019-03-20T14:14:16.439Z,46.30
2019-03-20T14:16:47.748Z,51.08
2019-03-20T14:19:20.742Z,46.53
2019-03-20T14:21:54.029Z,53.58
2019-03-20T14:24:25.717Z,51.23
2019-03-20T14:27:02.198Z,58.45
2019-03-20T14:29:33.509Z,51.13
2019-03-20T14:32:04.860Z,51.80
2019-03-20T14:34:36.155Z,51.23
2019-03-20T14:37:07.550Z,56.10
2019-03-20T14:39:38.958Z,49.18
2019-03-20T14:42:10.308Z,53.17
2019-03-20T14:44:42.712Z,52.60
2019-03-20T14:47:14.092Z,58.78
2019-03-20T14:49:45.582Z,61.75
2019-03-20T14:52:16.812Z,59.10
2019-03-20T14:54:48.182Z,54.13
2019-03-20T14:57:19.476Z,51.50
2019-03-20T14:59:50.866Z,52.55
2019-03-20T15:02:22.177Z,57.10
2019-03-20T15:04:53.511Z,52.50
2019-03-20T15:07:24.964Z,53.83
2019-03-20T15:09:56.398Z,49.90
2019-03-20T15:12:27.726Z,59.33
2019-03-20T15:14:59.191Z,56.10
2019-03-20T15:17:30.503Z,59.05
2019-03-20T15:20:02.020Z,66.53
2019-03-20T15:22:33.323Z,80.87
2019-03-20T15:25:07.083Z,79.62
2019-03-20T15:27:38.338Z,104.85
2019-03-20T15:30:18.835Z,73.28
2019-03-20T15:32:50.140Z,76.85
2019-03-20T15:35:21.550Z,86.17
2019-03-20T15:37:52.903Z,68.05
2019-03-20T15:40:26.387Z,76.85
2019-03-20T15:42:57.780Z,81.90
2019-03-20T15:45:29.094Z,73.83
2019-03-20T15:48:00.503Z,81.90
2019-03-20T15:50:31.855Z,71.40
2019-03-20T15:53:03.134Z,83.07
2019-03-20T15:55:39.575Z,82.67
2019-03-20T15:58:10.847Z,91.22
2019-03-20T16:00:42.202Z,79.87
2019-03-20T16:03:23.506Z,96.92
2019-03-20T16:05:55.595Z,77.75
2019-03-20T16:08:26.952Z,84.45
2019-03-20T16:11:06.169Z,78.97
2019-03-20T16:13:36.366Z,87.40
2019-03-20T16:16:19.956Z,98.33
2019-03-20T16:18:53.047Z,87.75
2019-03-20T16:21:24.455Z,96.30
2019-03-20T16:23:55.713Z,83.33
2019-03-20T16:26:27.141Z,93.78
2019-03-20T16:28:58.339Z,118.28
2019-03-20T16:31:29.788Z,115.80
2019-03-20T16:34:01.233Z,135.80
2019-03-20T16:36:32.632Z,130.75
2019-03-20T16:39:05.549Z,135.52
2019-03-20T16:41:36.877Z,133.57
2019-03-20T16:44:08.192Z,138.88
2019-03-20T16:46:39.599Z,128.97
2019-03-20T16:49:10.868Z,105.15
2019-03-20T16:51:42.264Z,97.37
2019-03-20T16:54:13.591Z,100.42
2019-03-20T16:56:44.921Z,71.28
2019-03-20T16:59:16.286Z,67.12
2019-03-20T17:01:47.653Z,75.00
2019-03-20T17:04:19.107Z,73.05
2019-03-20T17:06:50.504Z,73.30
2019-03-20T17:09:21.877Z,63.58
2019-03-20T17:11:53.351Z,68.17
2019-03-20T17:14:24.698Z,65.70
2019-03-20T17:16:56.164Z,71.75
2019-03-20T17:19:27.584Z,60.85
2019-03-20T17:21:58.953Z,72.05
2019-03-20T17:24:31.348Z,74.00
2019-03-20T17:27:02.770Z,57.23
2019-03-20T17:29:34.092Z,64.95
2019-03-20T17:32:05.503Z,62.78
2019-03-20T17:34:36.892Z,63.90
2019-03-20T17:37:08.280Z,60.28
2019-03-20T17:39:39.641Z,66.45
2019-03-20T17:42:10.983Z,65.08
2019-03-20T17:44:42.370Z,75.72
2019-03-20T17:47:13.784Z,66.95
2019-03-20T17:49:45.196Z,61.63
2019-03-20T17:52:16.593Z,63.35
2019-03-20T17:54:47.951Z,65.15
2019-03-20T17:57:19.373Z,78.40
2019-03-20T17:59:50.706Z,64.85
2019-03-20T18:02:24.249Z,60.55
2019-03-20T18:04:55.132Z,61.13
2019-03-20T18:07:26.526Z,64.95
2019-03-20T18:09:57.922Z,71.57
2019-03-20T18:12:29.266Z,65.45
2019-03-20T18:15:00.631Z,67.47
2019-03-20T18:17:33.296Z,68.50
2019-03-20T18:20:07.430Z,65.67
2019-03-20T18:22:38.724Z,64.80
2019-03-20T18:25:12.832Z,65.30
2019-03-20T18:27:44.217Z,65.25
2019-03-20T18:30:27.006Z,44.90
2019-03-20T18:32:58.377Z,52.90
2019-03-20T18:35:29.785Z,51.08
2019-03-20T18:38:01.221Z,51.65
2019-03-20T18:40:32.629Z,45.92
2019-03-20T18:43:03.967Z,70.10
2019-03-20T18:45:35.342Z,44.08
2019-03-20T18:48:06.676Z,57.17
2019-03-20T18:50:39.327Z,48.73
2019-03-20T18:53:11.646Z,58.65
2019-03-20T18:55:43.053Z,59.40
2019-03-20T18:58:14.389Z,53.40
2019-03-20T19:00:45.790Z,67.35
2019-03-20T19:03:25.791Z,54.15
2019-03-20T19:06:06.517Z,51.23
2019-03-20T19:08:37.880Z,62.40
2019-03-20T19:11:09.398Z,49.48
2019-03-20T19:13:40.763Z,54.95
2019-03-20T19:16:12.085Z,53.13
2019-03-20T19:18:43.521Z,68.92
2019-03-20T19:21:14.902Z,54.77
2019-03-20T19:23:46.512Z,56.18
2019-03-20T19:26:17.809Z,52.03
2019-03-20T19:28:49.233Z,46.28
2019-03-20T19:31:20.621Z,36.17
2019-03-20T19:33:52.096Z,42.20
2019-03-20T19:36:23.415Z,28.95
2019-03-20T19:38:54.794Z,26.37
2019-03-20T19:41:26.178Z,32.93
2019-03-20T19:43:57.572Z,33.25
2019-03-20T19:46:28.915Z,32.85
2019-03-20T19:49:00.339Z,31.05
2019-03-20T19:51:31.717Z,37.15
2019-03-20T19:54:04.779Z,37.25
2019-03-20T19:56:36.161Z,34.88
2019-03-20T19:59:07.527Z,26.75
2019-03-20T20:01:38.959Z,28.20
2019-03-20T20:04:10.365Z,30.62
2019-03-20T20:06:41.829Z,32.20
2019-03-20T20:09:13.244Z,29.98
2019-03-20T20:11:44.635Z,29.25
2019-03-20T20:14:16.100Z,30.10
2019-03-20T20:16:47.534Z,24.60
2019-03-20T20:19:18.886Z,26.45
2019-03-20T20:21:50.152Z,30.02
2019-03-20T20:24:21.547Z,27.30
2019-03-20T20:26:52.834Z,23.92
2019-03-20T20:29:24.186Z,23.18
2019-03-20T20:31:55.523Z,23.73
2019-03-20T20:34:26.936Z,26.77
2019-03-20T20:36:58.278Z,25.17
2019-03-20T20:39:29.646Z,28.45
2019-03-20T20:42:00.932Z,30.77
2019-03-20T20:44:32.253Z,21.60
2019-03-20T20:47:04.038Z,24.10
2019-03-20T20:49:35.348Z,21.97
2019-03-20T20:52:06.664Z,26.12
2019-03-20T20:54:38.056Z,25.17
2019-03-20T20:57:09.419Z,22.00
2019-03-20T20:59:40.733Z,29.92
2019-03-20T21:02:12.098Z,24.25
2019-03-20T21:04:43.523Z,15.45
2019-03-20T21:07:14.918Z,27.17
2019-03-20T21:09:46.338Z,23.65
2019-03-20T21:12:17.776Z,23.05
2019-03-20T21:14:49.175Z,21.25
2019-03-20T21:17:23.682Z,27.58
2019-03-20T21:19:55.011Z,22.55
2019-03-20T21:22:35.371Z,24.35
2019-03-20T21:25:06.796Z,21.17
2019-03-20T21:28:03.702Z,21.55
2019-03-20T21:30:50.001Z,21.93
2019-03-20T21:33:33.432Z,20.68
2019-03-20T21:36:39.523Z,19.98
2019-03-20T21:39:11.051Z,23.83
2019-03-20T21:42:11.458Z,21.02
2019-03-20T21:45:02.528Z,26.68
2019-03-20T21:47:33.634Z,23.95
2019-03-20T21:50:27.329Z,26.05
2019-03-20T21:52:58.639Z,24.77
2019-03-20T21:55:49.720Z,25.50
2019-03-20T21:58:27.000Z,25.32
2019-03-20T22:01:27.276Z,26.42
2019-03-20T22:03:58.501Z,28.80
2019-03-20T22:06:54.273Z,31.62
2019-03-20T22:09:34.600Z,28.73
2019-03-20T22:12:30.230Z,27.58
2019-03-20T22:15:13.644Z,34.50
2019-03-20T22:18:09.454Z,26.65
2019-03-20T22:20:56.138Z,29.05
2019-03-20T22:23:33.569Z,26.35
2019-03-20T22:26:25.976Z,26.17
2019-03-20T22:29:24.849Z,27.85
2019-03-20T22:32:07.951Z,31.12
2019-03-20T22:35:00.392Z,27.02
2019-03-20T22:37:31.835Z,26.50
2019-03-20T22:40:15.086Z,24.10
2019-03-20T22:43:13.362Z,24.65
2019-03-20T22:46:02.741Z,24.57
2019-03-20T22:48:56.430Z,22.40
2019-03-20T22:51:47.457Z,22.42
2019-03-20T22:54:41.426Z,19.90
2019-03-20T22:57:28.956Z,26.05
2019-03-20T23:00:00.409Z,19.57
2019-03-20T23:02:37.608Z,20.10
2019-03-20T23:05:10.748Z,18.02
2019-03-20T23:07:42.127Z,22.80
2019-03-20T23:10:16.435Z,17.98
2019-03-20T23:12:49.647Z,17.12
2019-03-20T23:15:22.182Z,18.87
2019-03-20T23:17:53.507Z,19.85
2019-03-20T23:20:27.804Z,21.40
2019-03-20T23:22:59.218Z,15.85
2019-03-20T23:25:30.480Z,17.15
2019-03-20T23:28:01.903Z,21.77
2019-03-20T23:30:36.327Z,22.05
2019-03-20T23:33:07.730Z,17.23
2019-03-20T23:35:39.128Z,19.85
2019-03-20T23:38:10.444Z,18.65
2019-03-20T23:40:41.838Z,21.10
2019-03-20T23:43:14.443Z,19.77
2019-03-20T23:45:45.721Z,23.18
2019-03-20T23:48:32.171Z,21.02
2019-03-20T23:51:06.617Z,19.30
2019-03-20T23:53:39.131Z,20.27
2019-03-20T23:56:10.577Z,19.55
2019-03-20T23:58:41.973Z,15.18
